createdAt,value
2022-10-23T00:05:36.135Z,4.4
2022-10-23T00:11:20.503Z,3.5
2022-10-23T00:17:03.707Z,3.2
2022-10-23T00:22:46.885Z,2.6
2022-10-23T00:28:30.018Z,3.2
2022-10-23T00:34:13.269Z,3.6
2022-10-23T00:39:56.506Z,3.7
2022-10-23T00:45:39.773Z,4.8
2022-10-23T00:51:24.086Z,2.9
2022-10-23T00:57:08.259Z,3.2
2022-10-23T01:02:51.421Z,4.1
2022-10-23T01:08:37.478Z,3.2
2022-10-23T01:14:25.954Z,3
2022-10-23T01:20:23.820Z,3.2
2022-10-23T01:26:28.160Z,2.6
2022-10-23T01:32:14.322Z,3.6
2022-10-23T01:38:03.582Z,4.3
2022-10-23T01:43:48.855Z,2.6
2022-10-23T01:49:32.699Z,4.5
2022-10-23T01:55:16.901Z,3
2022-10-23T02:01:03.839Z,1.6
2022-10-23T02:06:47.155Z,3.4
2022-10-23T02:12:35.845Z,2.7
2022-10-23T02:18:24.711Z,3.2
2022-10-23T02:24:10.222Z,2.7
2022-10-23T02:29:55.901Z,2.8
2022-10-23T02:35:39.191Z,3.3
2022-10-23T02:41:27.831Z,3.1
2022-10-23T02:47:18.127Z,1.9
2022-10-23T02:53:07.235Z,1.9
2022-10-23T02:58:53.566Z,2.8
2022-10-23T03:04:39.594Z,3.8
2022-10-23T03:10:23.028Z,2.1
2022-10-23T03:16:06.556Z,3.2
2022-10-23T03:21:49.773Z,4.5
2022-10-23T03:27:34.046Z,3.4
2022-10-23T03:33:17.419Z,3.3
2022-10-23T03:39:00.623Z,3.5
2022-10-23T03:44:44.217Z,2.1
2022-10-23T03:50:27.510Z,1.9
2022-10-23T03:56:11.157Z,3.8
2022-10-23T04:01:55.310Z,3.2
2022-10-23T04:07:38.967Z,2.3
2022-10-23T04:13:22.370Z,3
2022-10-23T04:19:05.724Z,3.4
2022-10-23T04:24:49.102Z,4.6
2022-10-23T04:30:33.498Z,1.8
2022-10-23T04:36:16.638Z,2.1
2022-10-23T04:41:59.779Z,2.2
2022-10-23T04:47:42.970Z,3.1
2022-10-23T04:53:26.440Z,2.6
2022-10-23T04:59:09.739Z,2.7
2022-10-23T05:04:53.265Z,2.4
2022-10-23T05:10:37.398Z,3
2022-10-23T05:16:26.489Z,2.3
2022-10-23T05:22:10.206Z,4.1
2022-10-23T05:27:54.686Z,3.6
2022-10-23T05:33:38.609Z,2.7
2022-10-23T05:39:22.351Z,3
2022-10-23T05:45:05.773Z,2.3
2022-10-23T05:50:48.830Z,2.5
2022-10-23T05:56:32.179Z,2.6
2022-10-23T06:02:15.676Z,3.1
2022-10-23T06:08:03.298Z,4.6
2022-10-23T06:13:46.930Z,2.4
2022-10-23T06:19:30.223Z,2.7
2022-10-23T06:25:14.154Z,3.3
2022-10-23T06:30:57.459Z,1.7
2022-10-23T06:36:40.807Z,2.3
2022-10-23T06:42:24.287Z,2
2022-10-23T06:48:08.050Z,1.8
2022-10-23T06:53:51.206Z,2.3
2022-10-23T06:59:34.487Z,2.1
2022-10-23T07:05:17.999Z,1.8
2022-10-23T07:11:04.909Z,2.1
2022-10-23T07:16:48.214Z,1.6
2022-10-23T07:22:31.824Z,2.8
2022-10-23T07:28:15.194Z,3.4
2022-10-23T07:33:59.483Z,3.3
2022-10-23T07:39:43.688Z,2.4
2022-10-23T07:45:26.895Z,3.1
2022-10-23T07:51:11.294Z,1.8
2022-10-23T07:56:54.569Z,1.8
2022-10-23T08:02:37.948Z,2.8
2022-10-23T08:08:22.239Z,2.1
2022-10-23T08:14:06.565Z,3.8
2022-10-23T08:19:50.624Z,3.6
2022-10-23T08:25:33.690Z,3.7
2022-10-23T08:31:18.059Z,4.2
2022-10-23T08:37:01.110Z,2.4
2022-10-23T08:42:46.220Z,2.9
2022-10-23T08:48:33.175Z,2.5
2022-10-23T08:54:20.046Z,4
2022-10-23T09:00:07.067Z,3.4
2022-10-23T09:05:57.059Z,3.1
2022-10-23T09:11:44.924Z,2.6
2022-10-23T09:17:30.183Z,2.8
2022-10-23T09:23:16.907Z,3.1
2022-10-23T09:29:08.062Z,3.4
2022-10-23T09:34:57.875Z,3.1
2022-10-23T09:40:44.053Z,2.5
2022-10-23T09:46:33.351Z,4.2
2022-10-23T09:52:27.106Z,5.1
2022-10-23T09:58:21.906Z,5
2022-10-23T10:04:05.159Z,5.6
2022-10-23T10:09:48.614Z,6.3
2022-10-23T10:15:35.087Z,7.7
2022-10-23T10:21:23.496Z,4.8
2022-10-23T10:27:10.475Z,3.4
2022-10-23T10:32:56.818Z,5
2022-10-23T10:38:45.858Z,6.4
2022-10-23T10:44:36.378Z,3.3
2022-10-23T10:50:24.233Z,4.7
2022-10-23T10:56:12.000Z,3.6
2022-10-23T11:01:59.729Z,4.5
2022-10-23T11:07:46.183Z,3.6
2022-10-23T11:13:32.723Z,4.5
2022-10-23T11:19:22.316Z,4.6
2022-10-23T11:25:10.972Z,4.8
2022-10-23T11:31:01.203Z,3.6
2022-10-23T11:36:49.202Z,4.5
2022-10-23T11:42:44.715Z,6.6
2022-10-23T11:48:33.264Z,10.9
2022-10-23T11:54:27.691Z,11.8
2022-10-23T12:00:24.946Z,7.8
2022-10-23T12:06:09.315Z,9.8
2022-10-23T12:11:58.092Z,7.9
2022-10-23T12:17:42.788Z,6.2
2022-10-23T12:23:49.979Z,5.2
2022-10-23T12:29:42.818Z,5.6
2022-10-23T12:35:32.823Z,7.4
2022-10-23T12:41:17.789Z,7.1
2022-10-23T12:47:03.269Z,9.2
2022-10-23T12:52:51.583Z,6.5
2022-10-23T12:58:35.845Z,9.3
2022-10-23T13:04:24.384Z,8
2022-10-23T13:10:08.392Z,7.3
2022-10-23T13:15:51.911Z,5.8
2022-10-23T13:21:35.351Z,5.1
2022-10-23T13:27:29.472Z,5.5
2022-10-23T13:33:24.490Z,5.1
2022-10-23T13:39:16.246Z,4.5
2022-10-23T13:44:59.662Z,4.7
2022-10-23T13:50:43.063Z,4.4
2022-10-23T13:56:27.174Z,6.1
2022-10-23T14:02:17.051Z,4.7
2022-10-23T14:08:00.450Z,6
2022-10-23T14:13:43.510Z,6.7
2022-10-23T14:19:26.994Z,5.3
2022-10-23T14:25:10.823Z,4.8
2022-10-23T14:30:54.991Z,6.2
2022-10-23T14:37:03.981Z,4.4
2022-10-23T14:42:41.691Z,6.3
2022-10-23T14:48:24.904Z,6
2022-10-23T14:54:09.054Z,6.5
2022-10-23T14:59:52.700Z,6
2022-10-23T15:05:36.032Z,10.4
2022-10-23T15:11:19.504Z,4.2
2022-10-23T15:17:02.811Z,4.8
2022-10-23T15:22:47.775Z,5.2
2022-10-23T15:28:32.255Z,4.3
2022-10-23T15:34:17.070Z,4.9
2022-10-23T15:40:04.692Z,4.4
2022-10-23T15:45:48.086Z,5.3
2022-10-23T15:51:31.450Z,7.8
2022-10-23T15:57:15.346Z,7.1
2022-10-23T16:02:58.646Z,6.1
2022-10-23T16:08:42.617Z,5.5
2022-10-23T16:14:25.827Z,5
2022-10-23T16:20:09.571Z,6.5
2022-10-23T16:25:52.759Z,6.6
2022-10-23T16:31:36.194Z,5.2
2022-10-23T16:37:19.682Z,7.5
2022-10-23T16:43:02.999Z,6.2
2022-10-23T16:48:46.329Z,3.5
2022-10-23T16:54:29.748Z,7.7
2022-10-23T17:00:13.800Z,5.4
2022-10-23T17:06:11.144Z,6.8
2022-10-23T17:11:55.560Z,3.8
2022-10-23T17:17:38.890Z,4.7
2022-10-23T17:23:22.268Z,4.7
2022-10-23T17:29:06.946Z,6.1
2022-10-23T17:34:50.299Z,5.8
2022-10-23T17:40:34.189Z,5.9
2022-10-23T17:46:18.086Z,5.3
2022-10-23T17:52:01.411Z,4.4
2022-10-23T17:57:46.338Z,6.6
2022-10-23T18:03:29.738Z,7.1
2022-10-23T18:09:13.366Z,5.6
2022-10-23T18:14:56.482Z,5.5
2022-10-23T18:20:40.933Z,4.9
2022-10-23T18:26:25.128Z,6.1
2022-10-23T18:32:08.442Z,5.5
2022-10-23T18:37:51.543Z,5
2022-10-23T18:43:45.733Z,6.1
2022-10-23T18:49:30.010Z,6.4
2022-10-23T18:55:15.640Z,7.2
2022-10-23T19:01:00.073Z,9.3
2022-10-23T19:06:43.893Z,7.7
2022-10-23T19:12:27.596Z,8.3
2022-10-23T19:18:12.624Z,5.9
2022-10-23T19:23:56.031Z,6.8
2022-10-23T19:29:40.403Z,8.3
2022-10-23T19:35:24.161Z,4.7
2022-10-23T19:41:07.749Z,5.9
2022-10-23T19:46:51.331Z,5.9
2022-10-23T19:52:35.639Z,7.7
2022-10-23T19:58:19.090Z,7.6
2022-10-23T20:04:02.438Z,7.1
2022-10-23T20:09:45.991Z,6.2
2022-10-23T20:15:29.318Z,8.8
2022-10-23T20:21:12.702Z,7.5
2022-10-23T20:26:57.647Z,10.2
2022-10-23T20:32:40.877Z,8.3
2022-10-23T20:38:26.350Z,10.2
2022-10-23T20:44:10.728Z,10.3
2022-10-23T20:49:55.400Z,8.4
2022-10-23T20:55:42.385Z,9
2022-10-23T21:01:26.128Z,9.9
2022-10-23T21:07:13.790Z,6
2022-10-23T21:12:56.992Z,6.1
2022-10-23T21:18:48.905Z,9.6
2022-10-23T21:24:32.033Z,8.6
2022-10-23T21:30:16.219Z,8
2022-10-23T21:36:13.789Z,7.7
2022-10-23T21:41:57.348Z,11.1
2022-10-23T21:47:40.551Z,7.2
2022-10-23T21:53:23.683Z,6.6
2022-10-23T21:59:08.026Z,7.5
2022-10-23T22:04:51.138Z,6.7
2022-10-23T22:10:36.389Z,5.3
2022-10-23T22:16:19.935Z,4.9
2022-10-23T22:22:03.062Z,6.5
2022-10-23T22:27:47.489Z,8.1
2022-10-23T22:33:30.702Z,5.7
2022-10-23T22:39:14.182Z,5.7
2022-10-23T22:44:57.322Z,6.5
2022-10-23T22:50:40.450Z,5.5
2022-10-23T22:56:25.073Z,4.1
2022-10-23T23:02:08.363Z,5
2022-10-23T23:07:51.570Z,4.5
2022-10-23T23:13:34.725Z,6
2022-10-23T23:19:21.430Z,6.4
2022-10-23T23:25:04.603Z,7.9
2022-10-23T23:30:49.176Z,6.1
2022-10-23T23:36:33.734Z,4.6
2022-10-23T23:42:17.000Z,9.1
2022-10-23T23:48:01.335Z,6.1
2022-10-23T23:53:44.549Z,5.3
2022-10-23T23:59:28.150Z,5.5
